createdAt,value
2022-12-08T00:02:44.852Z,100756.28
2022-12-08T00:06:07.817Z,100758.03
2022-12-08T00:09:23.991Z,100752.00
2022-12-08T00:12:27.722Z,100748.53
2022-12-08T00:15:32.745Z,100750.28
2022-12-08T00:18:36.952Z,100734.78
2022-12-08T00:21:40.737Z,100731.31
2022-12-08T00:24:46.508Z,100737.34
2022-12-08T00:27:50.121Z,100733.03
2022-12-08T00:30:55.311Z,100728.72
2022-12-08T00:34:00.094Z,100725.28
2022-12-08T00:37:03.850Z,100722.69
2022-12-08T00:40:09.881Z,100724.44
2022-12-08T00:43:13.819Z,100716.69
2022-12-08T00:46:18.829Z,100707.19
2022-12-08T00:49:23.480Z,100714.09
2022-12-08T00:52:27.027Z,100700.34
2022-12-08T00:55:31.233Z,100703.81
2022-12-08T00:58:35.634Z,100710.66
2022-12-08T01:01:40.717Z,100710.69
2022-12-08T01:04:44.609Z,100709.81
2022-12-08T01:07:49.078Z,100713.28
2022-12-08T01:10:52.890Z,100715.88
2022-12-08T01:13:56.466Z,100714.16
2022-12-08T01:17:01.457Z,100713.28
2022-12-08T01:20:07.249Z,100705.53
2022-12-08T01:23:11.193Z,100706.41
2022-12-08T01:26:17.687Z,100705.53
2022-12-08T01:29:21.495Z,100706.41
2022-12-08T01:32:26.701Z,100710.69
2022-12-08T01:35:30.340Z,100704.66
2022-12-08T01:38:34.667Z,100697.75
2022-12-08T01:41:40.087Z,100700.34
2022-12-08T01:45:08.280Z,100702.97
2022-12-08T01:48:19.645Z,100695.19
2022-12-08T01:51:23.783Z,100695.19
2022-12-08T01:54:33.132Z,100692.63
2022-12-08T01:57:43.313Z,100691.72
2022-12-08T02:00:47.232Z,100692.63
2022-12-08T02:03:59.550Z,100694.34
2022-12-08T02:07:08.146Z,100689.16
2022-12-08T02:10:17.739Z,100691.75
2022-12-08T02:13:24.545Z,100687.44
2022-12-08T02:16:42.189Z,100684.00
2022-12-08T02:20:18.283Z,100675.38
2022-12-08T02:23:37.752Z,100680.56
2022-12-08T02:27:21.909Z,100676.22
2022-12-08T02:30:33.231Z,100675.38
2022-12-08T02:34:13.574Z,100665.91
2022-12-08T02:37:29.354Z,100664.16
2022-12-08T02:40:40.962Z,100669.34
2022-12-08T02:43:50.082Z,100664.19
2022-12-08T02:46:59.795Z,100662.44
2022-12-08T02:50:05.473Z,100657.28
2022-12-08T02:56:36.274Z,100657.28
2022-12-08T03:00:04.003Z,100652.97
2022-12-08T03:03:20.822Z,100656.41
2022-12-08T03:06:36.652Z,100651.25
2022-12-08T03:09:50.774Z,100642.63
2022-12-08T03:12:59.514Z,100629.69
2022-12-08T03:16:05.886Z,100630.56
2022-12-08T03:19:18.634Z,100622.81
2022-12-08T03:22:28.654Z,100619.34
2022-12-08T03:25:38.051Z,100623.66
2022-12-08T03:28:42.000Z,100617.59
2022-12-08T03:31:53.369Z,100617.59
2022-12-08T03:35:00.224Z,100626.22
2022-12-08T03:38:07.652Z,100610.72
2022-12-08T03:41:20.861Z,100612.44
2022-12-08T03:44:24.602Z,100610.72
2022-12-08T03:47:28.352Z,100602.97
2022-12-08T03:50:32.096Z,100602.09
2022-12-08T03:53:37.152Z,100595.22
2022-12-08T03:56:41.295Z,100598.66
2022-12-08T03:59:44.918Z,100593.47
2022-12-08T04:02:48.544Z,100578.81
2022-12-08T04:05:53.012Z,100575.38
2022-12-08T04:08:58.045Z,100577.13
2022-12-08T04:12:01.626Z,100572.78
2022-12-08T04:15:06.262Z,100573.66
2022-12-08T04:18:09.783Z,100569.38
2022-12-08T04:21:13.925Z,100567.63
2022-12-08T04:24:18.934Z,100559.88
2022-12-08T04:27:22.590Z,100558.16
2022-12-08T04:30:26.291Z,100574.53
2022-12-08T04:33:30.167Z,100563.31
2022-12-08T04:36:33.807Z,100566.78
2022-12-08T04:39:38.863Z,100561.59
2022-12-08T04:42:42.712Z,100558.16
2022-12-08T04:45:46.506Z,100557.28
2022-12-08T04:48:50.141Z,100561.63
2022-12-08T04:51:53.967Z,100558.16
2022-12-08T04:54:58.979Z,100561.63
2022-12-08T04:58:02.722Z,100564.16
2022-12-08T05:01:06.687Z,100556.44
2022-12-08T05:04:10.374Z,100546.09
2022-12-08T05:07:14.011Z,100543.50
2022-12-08T05:10:19.168Z,100542.63
2022-12-08T05:13:22.825Z,100536.63
2022-12-08T05:16:26.537Z,100540.91
2022-12-08T05:19:30.201Z,100538.31
2022-12-08T05:22:33.994Z,100538.31
2022-12-08T05:25:38.957Z,100539.22
2022-12-08T05:29:01.558Z,100540.94
2022-12-08T05:32:05.446Z,100530.56
2022-12-08T05:35:10.222Z,100534.91
2022-12-08T05:38:14.044Z,100528.00
2022-12-08T05:41:21.633Z,100530.59
2022-12-08T05:44:25.195Z,100531.47
2022-12-08T05:47:33.071Z,100533.16
2022-12-08T05:50:39.438Z,100538.34
2022-12-08T05:53:43.071Z,100541.78
2022-12-08T05:56:48.198Z,100540.03
2022-12-08T05:59:52.078Z,100544.34
2022-12-08T06:02:55.759Z,100546.09
2022-12-08T06:05:59.418Z,100540.03
2022-12-08T06:09:04.986Z,100544.34
2022-12-08T06:12:11.730Z,100539.16
2022-12-08T06:15:15.334Z,100546.06
2022-12-08T06:18:18.970Z,100547.78
2022-12-08T06:21:22.988Z,100542.63
2022-12-08T06:24:27.073Z,100541.75
2022-12-08T06:27:32.245Z,100527.94
2022-12-08T06:30:36.061Z,100538.28
2022-12-08T06:33:40.578Z,100531.41
2022-12-08T06:36:44.378Z,100528.81
2022-12-08T06:39:48.099Z,100532.28
2022-12-08T06:42:53.137Z,100515.03
2022-12-08T06:45:57.593Z,100520.22
2022-12-08T06:49:01.965Z,100514.16
2022-12-08T06:52:06.171Z,100496.97
2022-12-08T06:55:24.612Z,100496.97
2022-12-08T06:58:37.093Z,100496.13
2022-12-08T07:01:40.758Z,100503.88
2022-12-08T07:04:44.470Z,100519.38
2022-12-08T07:07:48.173Z,100533.16
2022-12-08T07:10:51.857Z,100539.19
2022-12-08T07:13:58.189Z,100543.50
2022-12-08T07:17:02.518Z,100546.97
2022-12-08T07:20:08.213Z,100555.56
2022-12-08T07:23:11.881Z,100559.03
2022-12-08T07:26:15.934Z,100572.84
2022-12-08T07:29:26.078Z,100567.63
2022-12-08T07:32:29.987Z,100579.72
2022-12-08T07:35:35.252Z,100571.09
2022-12-08T07:38:39.319Z,100568.53
2022-12-08T07:41:42.947Z,100575.41
2022-12-08T07:44:47.894Z,100572.00
2022-12-08T07:47:52.860Z,100571.97
2022-12-08T07:51:02.682Z,100562.53
2022-12-08T07:54:06.484Z,100572.84
2022-12-08T07:57:17.286Z,100571.13
2022-12-08T08:00:23.411Z,100576.31
2022-12-08T08:03:27.190Z,100580.63
2022-12-08T08:06:31.716Z,100579.75
2022-12-08T08:09:36.120Z,100571.13
2022-12-08T08:12:40.769Z,100574.56
2022-12-08T08:15:46.042Z,100570.28
2022-12-08T08:18:52.306Z,100576.31
2022-12-08T08:21:57.594Z,100584.94
2022-12-08T08:25:01.497Z,100582.31
2022-12-08T08:28:05.277Z,100589.25
2022-12-08T08:31:10.539Z,100590.97
2022-12-08T08:34:14.859Z,100588.38
2022-12-08T08:37:18.883Z,100590.06
2022-12-08T08:40:22.494Z,100590.94
2022-12-08T08:43:37.785Z,100596.13
2022-12-08T08:46:43.312Z,100596.13
2022-12-08T08:49:47.818Z,100603.88
2022-12-08T08:52:51.453Z,100606.44
2022-12-08T08:55:55.103Z,100609.91
2022-12-08T08:58:59.173Z,100612.47
2022-12-08T09:02:04.238Z,100616.78
2022-12-08T09:05:09.106Z,100614.19
2022-12-08T09:08:12.865Z,100609.03
2022-12-08T09:11:18.765Z,100615.03
2022-12-08T09:14:23.696Z,100611.59
2022-12-08T09:17:28.678Z,100609.03
2022-12-08T09:20:32.506Z,100602.13
2022-12-08T09:23:36.167Z,100603.00
2022-12-08T09:26:39.737Z,100602.16
2022-12-08T09:29:43.287Z,100605.59
2022-12-08T09:32:48.615Z,100607.31
2022-12-08T09:35:52.210Z,100607.31
2022-12-08T09:38:56.090Z,100612.50
2022-12-08T09:42:02.701Z,100610.75
2022-12-08T09:45:13.066Z,100612.47
2022-12-08T09:48:24.407Z,100609.03
2022-12-08T09:51:36.272Z,100603.00
2022-12-08T09:54:39.843Z,100613.34
2022-12-08T09:57:43.603Z,100604.69
2022-12-08T10:00:47.323Z,100611.63
2022-12-08T10:03:54.833Z,100615.06
2022-12-08T10:07:11.136Z,100619.38
2022-12-08T10:10:31.756Z,100621.94
2022-12-08T10:13:46.351Z,100626.25
2022-12-08T10:16:55.216Z,100622.78
2022-12-08T10:20:08.291Z,100621.03
2022-12-08T10:23:34.373Z,100615.81
2022-12-08T10:26:37.957Z,100621.03
2022-12-08T10:29:42.290Z,100616.69
2022-12-08T10:32:50.162Z,100621.84
2022-12-08T10:35:59.356Z,100612.38
2022-12-08T10:39:03.131Z,100611.53
2022-12-08T10:42:19.212Z,100618.44
2022-12-08T10:45:31.628Z,100608.94
2022-12-08T10:48:35.500Z,100607.19
2022-12-08T10:51:43.500Z,100608.88
2022-12-08T10:54:47.148Z,100608.84
2022-12-08T10:57:50.893Z,100607.94
2022-12-08T11:00:57.465Z,100611.38
2022-12-08T11:04:03.688Z,100612.25
2022-12-08T11:07:13.263Z,100603.63
2022-12-08T11:10:21.455Z,100603.59
2022-12-08T11:13:29.977Z,100595.81
2022-12-08T11:16:33.666Z,100602.59
2022-12-08T11:19:40.332Z,100600.03
2022-12-08T11:22:48.028Z,100593.16
2022-12-08T11:25:56.212Z,100596.53
2022-12-08T11:29:17.471Z,100600.94
2022-12-08T11:32:21.979Z,100594.00
2022-12-08T11:35:33.800Z,100586.31
2022-12-08T11:38:45.392Z,100582.03
2022-12-08T11:41:52.191Z,100588.00
2022-12-08T11:45:01.399Z,100581.94
2022-12-08T11:48:19.134Z,100578.47
2022-12-08T11:51:33.402Z,100583.59
2022-12-08T11:54:45.249Z,100584.38
2022-12-08T11:57:51.316Z,100583.50
2022-12-08T12:00:56.737Z,100583.59
2022-12-08T12:04:14.851Z,100584.44
2022-12-08T12:07:55.604Z,100580.88
2022-12-08T12:11:34.585Z,100577.34
2022-12-08T12:15:19.689Z,100573.00
2022-12-08T12:18:31.175Z,100575.63
2022-12-08T12:21:41.279Z,100574.75
2022-12-08T12:24:49.504Z,100575.59
2022-12-08T12:28:00.490Z,100577.22
2022-12-08T12:31:11.190Z,100572.84
2022-12-08T12:34:23.727Z,100575.44
2022-12-08T12:37:37.670Z,100574.59
2022-12-08T12:40:44.731Z,100576.34
2022-12-08T12:44:24.996Z,100568.63
2022-12-08T12:47:52.577Z,100562.56
2022-12-08T12:51:01.214Z,100570.41
2022-12-08T12:54:23.148Z,100571.28
2022-12-08T12:57:37.782Z,100560.94
2022-12-08T13:00:41.535Z,100567.84
2022-12-08T13:03:48.764Z,100568.72
2022-12-08T13:06:53.975Z,100562.63
2022-12-08T13:10:06.053Z,100560.06
2022-12-08T13:13:19.840Z,100561.81
2022-12-08T13:16:27.858Z,100565.25
2022-12-08T13:19:34.894Z,100561.75
2022-12-08T13:23:28.093Z,100560.00
2022-12-08T13:26:31.857Z,100553.16
2022-12-08T13:29:37.325Z,100556.59
2022-12-08T13:33:17.657Z,100568.59
2022-12-08T13:36:29.186Z,100559.00
2022-12-08T13:39:47.917Z,100569.41
2022-12-08T13:43:06.277Z,100567.78
2022-12-08T13:46:57.945Z,100567.81
2022-12-08T13:57:05.458Z,100580.13
2022-12-08T14:00:19.069Z,100577.59
2022-12-08T14:03:23.010Z,100585.44
2022-12-08T14:06:32.865Z,100587.19
2022-12-08T14:09:38.508Z,100585.50
2022-12-08T14:12:49.243Z,100590.72
2022-12-08T14:15:52.933Z,100591.63
2022-12-08T14:18:56.536Z,100595.94
2022-12-08T14:22:04.194Z,100602.91
2022-12-08T14:25:14.751Z,100608.09
2022-12-08T14:28:19.994Z,100612.41
2022-12-08T14:31:24.561Z,100612.44
2022-12-08T14:34:28.505Z,100615.03
2022-12-08T14:37:36.575Z,100615.91
2022-12-08T14:40:43.477Z,100615.91
2022-12-08T14:44:01.437Z,100614.19
2022-12-08T14:47:09.943Z,100616.78
2022-12-08T14:50:42.070Z,100619.38
2022-12-08T14:53:54.547Z,100618.53
2022-12-08T14:56:59.448Z,100624.53
2022-12-08T15:00:20.386Z,100623.69
2022-12-08T15:03:26.064Z,100627.13
2022-12-08T15:06:30.146Z,100630.56
2022-12-08T15:09:41.146Z,100635.72
2022-12-08T15:13:05.012Z,100640.91
2022-12-08T15:19:38.126Z,100640.88
2022-12-08T15:22:43.777Z,100641.72
2022-12-08T15:25:48.690Z,100638.28
2022-12-08T15:28:53.035Z,100645.19
2022-12-08T15:31:59.968Z,100644.31
2022-12-08T15:35:05.216Z,100647.75
2022-12-08T15:38:21.967Z,100647.72
2022-12-08T15:41:25.632Z,100646.88
2022-12-08T15:44:32.761Z,100656.34
2022-12-08T15:47:37.065Z,100645.16
2022-12-08T15:50:42.233Z,100653.75
2022-12-08T15:53:45.936Z,100656.31
2022-12-08T15:57:18.472Z,100662.31
2022-12-08T16:00:55.086Z,100662.28
2022-12-08T16:04:27.865Z,100662.22
2022-12-08T16:07:28.576Z,100662.22
2022-12-08T16:11:08.377Z,100662.19
2022-12-08T16:13:58.306Z,100664.72
2022-12-08T16:17:03.817Z,100668.16
2022-12-08T16:20:12.412Z,100670.69
2022-12-08T16:23:41.083Z,100674.88
2022-12-08T16:30:08.385Z,100675.69
2022-12-08T16:33:13.216Z,100683.38
2022-12-08T16:36:16.874Z,100686.69
2022-12-08T16:39:21.925Z,100697.00
2022-12-08T16:42:43.784Z,100690.09
2022-12-08T16:45:47.919Z,100703.78
2022-12-08T16:48:51.820Z,100698.63
2022-12-08T16:51:55.558Z,100708.06
2022-12-08T16:55:00.645Z,100700.28
2022-12-08T16:58:04.875Z,100706.38
2022-12-08T17:01:13.256Z,100704.66
2022-12-08T17:04:31.416Z,100703.81
2022-12-08T17:07:37.284Z,100708.97
2022-12-08T17:10:43.973Z,100702.94
2022-12-08T17:13:47.674Z,100710.69
2022-12-08T17:16:51.486Z,100705.56
2022-12-08T17:19:55.057Z,100715.06
2022-12-08T17:22:59.731Z,100710.81
2022-12-08T17:26:05.670Z,100711.72
2022-12-08T17:29:09.450Z,100715.19
2022-12-08T17:32:13.113Z,100710.09
2022-12-08T17:35:16.893Z,100721.34
2022-12-08T17:38:23.040Z,100719.72
2022-12-08T17:41:28.215Z,100722.38
2022-12-08T17:44:33.436Z,100731.03
2022-12-08T17:47:37.993Z,100729.28
2022-12-08T17:50:44.561Z,100725.88
2022-12-08T17:53:48.244Z,100718.97
2022-12-08T17:56:53.537Z,100722.47
2022-12-08T17:59:57.430Z,100722.44
2022-12-08T18:03:01.782Z,100727.63
2022-12-08T18:06:11.566Z,100723.31
2022-12-08T18:09:16.387Z,100730.22
2022-12-08T18:12:23.912Z,100722.47
2022-12-08T18:15:28.039Z,100726.81
2022-12-08T18:18:31.710Z,100722.53
2022-12-08T18:21:36.490Z,100730.22
2022-12-08T18:24:41.015Z,100731.13
2022-12-08T18:27:46.227Z,100727.72
2022-12-08T18:30:50.418Z,100725.13
2022-12-08T18:33:54.912Z,100726.00
2022-12-08T18:36:58.713Z,100725.13
2022-12-08T18:40:02.507Z,100728.59
2022-12-08T18:43:07.792Z,100722.53
2022-12-08T18:46:15.481Z,100732.88
2022-12-08T18:49:21.055Z,100723.38
2022-12-08T18:52:31.151Z,100729.38
2022-12-08T18:55:38.205Z,100728.53
2022-12-08T18:58:43.130Z,100726.81
2022-12-08T19:01:47.006Z,100721.53
2022-12-08T19:04:50.727Z,100719.78
2022-12-08T19:07:54.432Z,100725.81
2022-12-08T19:10:58.358Z,100730.97
2022-12-08T19:14:03.827Z,100729.28
2022-12-08T19:17:07.665Z,100735.28
2022-12-08T19:20:13.773Z,100726.63
2022-12-08T19:23:17.875Z,100739.53
2022-12-08T19:26:21.831Z,100742.13
2022-12-08T19:29:27.582Z,100744.75
2022-12-08T19:32:31.437Z,100737.03
2022-12-08T19:35:35.328Z,100745.63
2022-12-08T19:38:53.051Z,100745.63
2022-12-08T19:42:14.096Z,100748.25
2022-12-08T19:45:39.780Z,100749.13
2022-12-08T19:48:43.673Z,100747.38
2022-12-08T19:51:47.517Z,100747.41
2022-12-08T19:54:51.582Z,100749.97
2022-12-08T19:57:56.735Z,100751.69
2022-12-08T20:01:02.167Z,100751.72
2022-12-08T20:04:06.467Z,100764.63
2022-12-08T20:07:14.098Z,100759.50
2022-12-08T20:10:22.167Z,100754.28
2022-12-08T20:13:45.937Z,100758.66
2022-12-08T20:16:51.372Z,100767.16
2022-12-08T20:19:55.091Z,100760.28
2022-12-08T20:22:59.331Z,100772.25
2022-12-08T20:26:12.641Z,100764.50
2022-12-08T20:29:18.793Z,100768.00
2022-12-08T20:32:24.204Z,100770.59
2022-12-08T20:35:27.902Z,100765.44
2022-12-08T20:38:31.860Z,100767.25
2022-12-08T20:41:39.078Z,100766.31
2022-12-08T20:44:44.581Z,100770.59
2022-12-08T20:47:50.257Z,100773.16
2022-12-08T20:50:54.800Z,100777.41
2022-12-08T20:53:59.539Z,100773.13
2022-12-08T20:57:03.549Z,100773.13
2022-12-08T21:00:10.470Z,100771.47
2022-12-08T21:03:17.846Z,100778.28
2022-12-08T21:06:28.158Z,100773.16
2022-12-08T21:09:32.139Z,100769.75
2022-12-08T21:12:36.064Z,100770.56
2022-12-08T21:15:39.938Z,100772.25
2022-12-08T21:18:45.193Z,100774.81
2022-12-08T21:21:50.752Z,100771.31
2022-12-08T21:24:54.797Z,100772.13
2022-12-08T21:27:58.412Z,100774.75
2022-12-08T21:31:02.452Z,100770.44
2022-12-08T21:34:07.686Z,100766.16
2022-12-08T21:37:11.671Z,100773.78
2022-12-08T21:40:16.004Z,100768.56
2022-12-08T21:43:19.784Z,100777.16
2022-12-08T21:46:23.813Z,100768.53
2022-12-08T21:49:29.150Z,100777.16
2022-12-08T21:52:33.144Z,100782.34
2022-12-08T21:55:36.671Z,100775.41
2022-12-08T21:58:40.913Z,100779.72
2022-12-08T22:01:45.039Z,100773.72
2022-12-08T22:04:50.882Z,100773.69
2022-12-08T22:07:55.039Z,100775.44
2022-12-08T22:10:58.868Z,100773.75
2022-12-08T22:14:02.689Z,100774.53
2022-12-08T22:17:06.600Z,100777.13
2022-12-08T22:20:15.955Z,100771.09
2022-12-08T22:23:19.895Z,100772.00
2022-12-08T22:26:23.734Z,100766.88
2022-12-08T22:29:27.451Z,100772.97
2022-12-08T22:32:31.068Z,100766.97
2022-12-08T22:35:36.157Z,100772.97
2022-12-08T22:38:40.685Z,100773.81
2022-12-08T22:41:44.772Z,100771.25
2022-12-08T22:44:48.314Z,100774.69
2022-12-08T22:47:51.969Z,100778.19
2022-12-08T22:51:01.420Z,100785.88
2022-12-08T22:54:05.959Z,100782.47
2022-12-08T22:57:09.713Z,100772.16
2022-12-08T23:00:14.643Z,100778.22
2022-12-08T23:03:18.563Z,100778.25
2022-12-08T23:06:23.711Z,100785.13
2022-12-08T23:09:28.039Z,100781.72
2022-12-08T23:12:32.407Z,100786.06
2022-12-08T23:15:36.136Z,100793.78
2022-12-08T23:18:43.579Z,100792.03
2022-12-08T23:21:48.928Z,100790.31
2022-12-08T23:24:52.676Z,100787.78
2022-12-08T23:27:56.437Z,100792.06
2022-12-08T23:31:00.082Z,100792.06
2022-12-08T23:34:04.130Z,100798.13
2022-12-08T23:37:09.281Z,100791.22
2022-12-08T23:40:13.742Z,100786.06
2022-12-08T23:43:17.409Z,100785.25
2022-12-08T23:46:23.600Z,100787.81
2022-12-08T23:49:27.517Z,100786.97
2022-12-08T23:52:32.664Z,100788.72
2022-12-08T23:55:36.347Z,100789.56
2022-12-08T23:58:40.729Z,100793.84
